Time;durP1;ratioP1;P1;durP2;ratioP2;P2;SDS_P1;SDS_P2;PMS_P1;PMS_P2;Temp;Humidity;BMP_temperature;BMP_pressure;BME280_temperature;BME280_humidity;BME280_pressure;Samples;Min_cycle;Max_cycle;Signal;HPM_P1;HPM_P2
2022/11/18 00:02:12;;;;;;;14.00;8.30;;;18.10;57.10;;;;;;4961314;28;20225;-69
2022/11/18 00:04:39;;;;;;;12.48;7.60;;;18.10;57.10;;;;;;4961375;28;20190;-69
2022/11/18 00:07:08;;;;;;;14.25;7.63;;;18.10;57.10;;;;;;4961112;28;20289;-69
2022/11/18 00:09:36;;;;;;;10.95;7.25;;;18.10;57.10;;;;;;4960334;28;20209;-69
2022/11/18 00:14:48;;;;;;;12.70;7.35;;;18.10;57.20;;;;;;4960632;28;20324;-69
2022/11/18 00:17:15;;;;;;;11.85;7.10;;;18.10;57.30;;;;;;4960601;28;20198;-69
2022/11/18 00:19:42;;;;;;;12.38;7.45;;;18.10;57.10;;;;;;4960351;28;20237;-69
2022/11/18 00:22:12;;;;;;;11.85;6.47;;;18.00;57.10;;;;;;4961240;28;20637;-69
2022/11/18 00:24:39;;;;;;;11.25;6.35;;;18.00;57.20;;;;;;4960782;28;20202;-69
2022/11/18 00:27:06;;;;;;;11.73;6.70;;;18.00;57.20;;;;;;4981016;28;20222;-69
2022/11/18 00:29:33;;;;;;;10.75;6.07;;;18.00;57.10;;;;;;4960997;28;20198;-69
2022/11/18 00:32:01;;;;;;;10.10;6.43;;;18.00;57.20;;;;;;4960280;28;20253;-69
2022/11/18 00:34:27;;;;;;;11.95;6.43;;;18.00;57.20;;;;;;4959943;28;20218;-69
2022/11/18 00:36:55;;;;;;;12.25;5.80;;;18.00;57.30;;;;;;4959815;28;20209;-69
2022/11/18 00:39:23;;;;;;;11.20;6.55;;;18.00;57.20;;;;;;4959817;28;20209;-69
2022/11/18 00:44:35;;;;;;;9.75;5.63;;;17.90;57.20;;;;;;4946618;28;20225;-69
2022/11/18 00:47:03;;;;;;;8.98;5.65;;;17.90;57.20;;;;;;4959413;28;20206;-69
2022/11/18 00:49:30;;;;;;;10.43;5.63;;;17.90;57.20;;;;;;4959509;28;20800;-69
2022/11/18 00:51:57;;;;;;;10.07;5.80;;;17.90;57.20;;;;;;4959371;28;20719;-69
2022/11/18 00:54:26;;;;;;;9.25;5.07;;;17.90;57.20;;;;;;4959281;28;20214;-69
2022/11/18 00:56:53;;;;;;;6.93;5.05;;;17.90;57.20;;;;;;4959678;28;20207;-69
2022/11/18 00:59:20;;;;;;;8.93;5.07;;;17.90;57.20;;;;;;4976586;28;20191;-69
2022/11/18 01:01:48;;;;;;;9.73;5.15;;;17.90;57.20;;;;;;4959391;28;20306;-69
2022/11/18 01:04:15;;;;;;;8.73;5.10;;;17.90;57.20;;;;;;4960086;28;20245;-69
2022/11/18 01:06:42;;;;;;;8.38;4.88;;;17.90;57.20;;;;;;4959050;28;20581;-69
2022/11/18 01:09:09;;;;;;;9.52;5.45;;;17.90;57.20;;;;;;4976351;28;20194;-69
2022/11/18 01:14:25;;;;;;;8.35;4.88;;;17.90;57.20;;;;;;4958881;28;20640;-69
2022/11/18 01:16:54;;;;;;;8.23;4.47;;;17.80;57.20;;;;;;4958932;28;20624;-69
2022/11/18 01:19:22;;;;;;;7.38;4.60;;;17.80;57.20;;;;;;4958622;28;20216;-69
2022/11/18 01:21:49;;;;;;;7.22;4.68;;;17.80;57.40;;;;;;4976147;28;20216;-69
2022/11/18 01:24:17;;;;;;;7.90;4.10;;;17.80;57.10;;;;;;4958849;28;20190;-69
2022/11/18 01:26:45;;;;;;;8.15;4.97;;;17.80;57.20;;;;;;4976493;28;20200;-69
2022/11/18 01:29:14;;;;;;;8.52;4.43;;;17.80;57.20;;;;;;4958570;28;20259;-69
2022/11/18 01:31:41;;;;;;;8.93;4.90;;;17.80;57.20;;;;;;4975846;28;20261;-70
2022/11/18 01:34:09;;;;;;;8.23;4.15;;;17.80;57.10;;;;;;4958438;28;20276;-70
2022/11/18 01:36:35;;;;;;;8.13;4.63;;;17.80;57.10;;;;;;4958541;28;20198;-70
2022/11/18 01:39:02;;;;;;;6.50;4.43;;;17.80;57.40;;;;;;4958872;28;20213;-70
2022/11/18 01:41:29;;;;;;;8.25;4.65;;;17.80;57.30;;;;;;4958519;28;20597;-70
2022/11/18 01:43:59;;;;;;;7.93;4.10;;;17.80;57.30;;;;;;4958575;28;20198;-70
2022/11/18 01:46:27;;;;;;;6.93;4.18;;;17.80;57.30;;;;;;4958272;28;20205;-70
2022/11/18 01:48:55;;;;;;;7.70;4.35;;;17.80;57.30;;;;;;4958421;28;20233;-70
2022/11/18 01:51:26;;;;;;;6.80;4.32;;;17.80;57.50;;;;;;4958402;28;20218;-70
2022/11/18 01:53:58;;;;;;;5.57;3.78;;;17.70;57.50;;;;;;4957962;28;20329;-70
2022/11/18 01:56:29;;;;;;;5.43;3.53;;;17.70;57.50;;;;;;4958686;28;20571;-70
2022/11/18 01:58:59;;;;;;;6.43;3.88;;;17.70;57.50;;;;;;4958449;28;20190;-70
2022/11/18 02:01:26;;;;;;;6.10;3.47;;;17.70;57.60;;;;;;4958391;28;20221;-70
2022/11/18 02:03:53;;;;;;;5.95;4.03;;;17.70;57.60;;;;;;4958635;28;20665;-70
2022/11/18 02:06:21;;;;;;;6.45;3.72;;;17.70;57.60;;;;;;4958330;28;20205;-70
2022/11/18 02:08:48;;;;;;;6.22;3.80;;;17.70;57.60;;;;;;4958097;28;20302;-70
2022/11/18 02:13:58;;;;;;;6.32;3.70;;;17.70;57.70;;;;;;4957233;28;20225;-70
2022/11/18 02:16:28;;;;;;;5.40;3.60;;;17.70;57.60;;;;;;4959243;28;20197;-70
2022/11/18 02:18:58;;;;;;;6.68;3.55;;;17.70;57.60;;;;;;4958162;28;20201;-70
2022/11/18 02:21:28;;;;;;;5.40;3.50;;;17.70;57.60;;;;;;4958284;28;20244;-70
2022/11/18 02:24:13;;;;;;;4.88;3.05;;;17.70;57.70;;;;;;4958582;28;20740;-70
2022/11/18 02:27:20;;;;;;;4.80;3.10;;;17.70;57.70;;;;;;4975335;28;20178;-69
2022/11/18 02:29:50;;;;;;;6.97;3.75;;;17.70;57.70;;;;;;4958009;28;20196;-69
2022/11/18 02:32:18;;;;;;;7.07;3.50;;;17.60;57.60;;;;;;4958504;28;20230;-69
2022/11/18 02:34:48;;;;;;;5.07;3.42;;;17.60;57.60;;;;;;4958344;28;20214;-69
2022/11/18 02:37:17;;;;;;;5.40;3.35;;;17.70;57.70;;;;;;4959302;28;20213;-69
2022/11/18 02:39:47;;;;;;;5.22;3.20;;;17.70;57.70;;;;;;4959193;28;20213;-69
2022/11/18 02:42:14;;;;;;;5.43;3.05;;;17.60;57.70;;;;;;4959548;28;20228;-69
2022/11/18 02:44:43;;;;;;;6.63;3.58;;;17.60;57.70;;;;;;4959700;28;20194;-69
2022/11/18 02:47:13;;;;;;;5.03;3.20;;;17.60;57.80;;;;;;4960333;28;20245;-69
2022/11/18 02:49:43;;;;;;;5.40;3.00;;;17.60;57.70;;;;;;4958698;28;20190;-69
2022/11/18 02:52:11;;;;;;;4.95;2.95;;;17.60;57.70;;;;;;4958047;28;20214;-69
2022/11/18 02:54:39;;;;;;;5.03;3.00;;;17.60;57.80;;;;;;4958089;28;20222;-69
2022/11/18 02:57:06;;;;;;;6.97;3.33;;;17.60;57.80;;;;;;4957655;28;20202;-69
2022/11/18 02:59:33;;;;;;;3.15;2.53;;;17.60;57.80;;;;;;4957667;28;20285;-69
2022/11/18 03:02:00;;;;;;;4.43;3.00;;;17.60;57.80;;;;;;4957646;28;20217;-69
2022/11/18 03:04:29;;;;;;;4.93;3.13;;;17.60;57.80;;;;;;4957713;28;20198;-69
2022/11/18 03:07:00;;;;;;;4.47;2.63;;;17.60;57.80;;;;;;4960348;28;20209;-69
2022/11/18 03:09:28;;;;;;;5.43;3.03;;;17.50;57.80;;;;;;4965217;28;20212;-69
2022/11/18 03:11:59;;;;;;;4.93;3.25;;;17.50;57.70;;;;;;4963832;28;20228;-69
2022/11/18 03:14:31;;;;;;;6.57;3.05;;;17.50;57.70;;;;;;4980101;28;20208;-69
2022/11/18 03:17:00;;;;;;;4.65;3.00;;;17.50;57.70;;;;;;4962462;28;20195;-69
2022/11/18 03:19:41;;;;;;;4.95;2.80;;;17.50;57.80;;;;;;4961821;28;20210;-69
2022/11/18 03:22:11;;;;;;;4.72;3.10;;;17.50;57.80;;;;;;4978840;28;20224;-69
2022/11/18 03:24:40;;;;;;;4.43;2.60;;;17.50;57.80;;;;;;4962004;28;20195;-69
2022/11/18 03:27:11;;;;;;;3.50;2.55;;;17.50;57.80;;;;;;4961387;28;20253;-69
2022/11/18 03:29:40;;;;;;;5.78;2.70;;;17.50;57.80;;;;;;4961128;28;20209;-69
2022/11/18 03:32:10;;;;;;;4.82;2.85;;;17.50;57.80;;;;;;4961060;28;20214;-69
2022/11/18 03:34:41;;;;;;;5.43;2.72;;;17.50;57.80;;;;;;4961087;28;20221;-69
2022/11/18 03:37:09;;;;;;;4.35;2.85;;;17.50;57.80;;;;;;4961039;28;20638;-69
2022/11/18 03:39:37;;;;;;;2.95;2.25;;;17.50;57.80;;;;;;4960908;28;20277;-69
2022/11/18 03:42:07;;;;;;;4.30;2.72;;;17.50;57.80;;;;;;4960591;28;20321;-69
2022/11/18 03:44:36;;;;;;;4.63;2.70;;;17.50;57.90;;;;;;4960853;28;20294;-69
2022/11/18 03:47:06;;;;;;;3.83;2.35;;;17.50;57.90;;;;;;4977877;28;20281;-69
2022/11/18 03:49:35;;;;;;;3.65;2.28;;;17.50;57.80;;;;;;4960959;28;20198;-69
2022/11/18 03:52:06;;;;;;;4.20;2.28;;;17.50;57.90;;;;;;4960460;28;20232;-69
2022/11/18 03:54:34;;;;;;;4.18;2.42;;;17.40;57.80;;;;;;4960414;28;20214;-69
2022/11/18 03:57:17;;;;;;;5.32;2.60;;;17.40;57.80;;;;;;4960447;28;20194;-69
2022/11/18 03:59:45;;;;;;;3.92;2.58;;;17.40;57.80;;;;;;4960531;28;20201;-69
2022/11/18 04:02:15;;;;;;;3.50;2.45;;;17.40;57.80;;;;;;4960531;28;20226;-69
2022/11/18 04:04:42;;;;;;;3.53;2.30;;;17.40;57.80;;;;;;4960286;28;20642;-69
2022/11/18 04:07:13;;;;;;;4.15;2.38;;;17.40;57.70;;;;;;4960248;28;20202;-69
2022/11/18 04:09:42;;;;;;;3.33;2.55;;;17.50;57.80;;;;;;4977708;28;20183;-69
2022/11/18 04:12:11;;;;;;;2.25;1.90;;;17.40;57.60;;;;;;4977491;28;20242;-69
2022/11/18 04:14:39;;;;;;;3.33;2.28;;;17.40;57.80;;;;;;4977310;28;20206;-69
2022/11/18 04:17:07;;;;;;;3.15;2.58;;;17.40;57.80;;;;;;4959793;28;20578;-69
2022/11/18 04:19:34;;;;;;;2.95;2.40;;;17.40;57.80;;;;;;4959895;28;20216;-69
2022/11/18 04:22:01;;;;;;;2.78;1.98;;;17.40;57.70;;;;;;4977191;28;20210;-69
2022/11/18 04:24:30;;;;;;;3.38;2.20;;;17.40;57.70;;;;;;4960229;28;20616;-69
2022/11/18 04:26:57;;;;;;;3.80;2.42;;;17.50;57.90;;;;;;4959882;28;20205;-69
2022/11/18 04:29:24;;;;;;;3.83;2.30;;;17.50;57.90;;;;;;4959976;28;20661;-69
2022/11/18 04:31:51;;;;;;;4.28;2.25;;;17.50;57.80;;;;;;4959854;28;20221;-69
2022/11/18 04:34:18;;;;;;;4.28;2.22;;;17.60;57.80;;;;;;4959702;28;20575;-69
2022/11/18 04:36:45;;;;;;;2.80;2.15;;;17.60;57.80;;;;;;4959834;28;20568;-69
2022/11/18 04:39:13;;;;;;;3.30;2.10;;;17.60;57.60;;;;;;4959832;28;20238;-69
2022/11/18 04:41:56;;;;;;;3.47;2.22;;;17.60;57.50;;;;;;4959792;28;20222;-69
2022/11/18 04:44:23;;;;;;;3.75;1.95;;;17.70;57.50;;;;;;4960654;28;20201;-69
2022/11/18 04:46:51;;;;;;;3.50;2.10;;;17.80;57.30;;;;;;4944225;28;20202;-69
2022/11/18 04:49:18;;;;;;;2.92;2.05;;;17.80;57.10;;;;;;4960126;28;20202;-69
2022/11/18 04:51:45;;;;;;;2.65;2.15;;;17.80;57.70;;;;;;4976900;28;20249;-69
2022/11/18 04:54:13;;;;;;;3.03;1.98;;;17.80;57.00;;;;;;4959641;28;20229;-69
2022/11/18 04:56:42;;;;;;;2.97;2.05;;;17.80;56.90;;;;;;4959472;28;20222;-69
2022/11/18 04:59:09;;;;;;;3.70;2.20;;;17.80;56.90;;;;;;4959870;28;20289;-69
2022/11/18 05:01:36;;;;;;;2.45;2.00;;;17.80;56.80;;;;;;4960838;28;20625;-69
2022/11/18 05:04:04;;;;;;;2.42;2.03;;;17.90;56.80;;;;;;4977277;28;20243;-70
2022/11/18 05:06:32;;;;;;;3.20;1.92;;;17.90;56.70;;;;;;4959605;28;20198;-70
2022/11/18 05:08:59;;;;;;;3.33;2.00;;;17.90;56.60;;;;;;4976830;28;20190;-70
2022/11/18 05:14:12;;;;;;;2.75;1.85;;;18.00;56.60;;;;;;4959175;28;20569;-70
2022/11/18 05:16:39;;;;;;;3.05;1.95;;;17.90;56.50;;;;;;4959141;28;20218;-70
2022/11/18 05:19:06;;;;;;;2.92;2.08;;;17.90;56.50;;;;;;4959031;28;20212;-70
2022/11/18 05:21:33;;;;;;;1.98;1.70;;;17.90;56.50;;;;;;4977061;28;20213;-70
2022/11/18 05:24:01;;;;;;;4.05;1.90;;;18.00;56.60;;;;;;4959260;28;20206;-70
2022/11/18 05:26:28;;;;;;;2.45;1.88;;;17.90;56.50;;;;;;4958898;28;20194;-70
2022/11/18 05:28:55;;;;;;;2.10;1.60;;;17.90;56.40;;;;;;4958819;28;20222;-70
2022/11/18 05:31:24;;;;;;;3.47;2.03;;;17.90;56.90;;;;;;4958690;28;20233;-70
2022/11/18 05:33:50;;;;;;;3.03;1.88;;;18.00;56.50;;;;;;4976185;28;20201;-70
2022/11/18 05:36:19;;;;;;;3.38;2.00;;;18.00;56.40;;;;;;4975997;28;20623;-70
2022/11/18 05:38:46;;;;;;;3.03;1.92;;;17.90;56.30;;;;;;4958649;28;20222;-70
2022/11/18 05:43:09;;;;;;;3.60;2.20;;;17.90;56.20;;;;;;4976645;28;20210;-70
2022/11/18 05:43:59;;;;;;;3.42;2.08;;;17.90;56.30;;;;;;4958435;28;20625;-70
2022/11/18 05:46:29;;;;;;;2.88;1.85;;;17.90;56.30;;;;;;4958703;28;20198;-70
2022/11/18 05:48:56;;;;;;;2.25;1.70;;;17.90;56.30;;;;;;4958690;28;20661;-70
2022/11/18 05:51:24;;;;;;;2.10;1.70;;;17.90;56.20;;;;;;4977049;28;20700;-70
2022/11/18 05:53:51;;;;;;;3.35;1.88;;;17.80;56.10;;;;;;4963555;28;20202;-70
2022/11/18 05:56:20;;;;;;;2.92;1.90;;;17.90;56.30;;;;;;4974721;28;20230;-69
2022/11/18 05:58:47;;;;;;;2.30;1.42;;;17.90;56.20;;;;;;4978127;28;20680;-69
2022/11/18 06:01:15;;;;;;;2.70;1.70;;;17.90;56.20;;;;;;4978386;28;20214;-69
2022/11/18 06:03:44;;;;;;;1.70;1.48;;;17.90;56.20;;;;;;4958667;28;20209;-69
2022/11/18 06:06:11;;;;;;;2.00;1.60;;;17.90;56.00;;;;;;4958158;28;20204;-69
2022/11/18 06:08:40;;;;;;;2.30;1.70;;;17.90;55.90;;;;;;4958521;28;20281;-69
2022/11/18 06:11:07;;;;;;;2.30;1.83;;;17.90;55.90;;;;;;4958613;28;20677;-69
2022/11/18 06:13:36;;;;;;;2.83;1.73;;;17.90;55.90;;;;;;4958804;28;20198;-69
2022/11/18 06:16:03;;;;;;;1.77;1.38;;;17.90;56.10;;;;;;4957999;28;20225;-69
2022/11/18 06:18:31;;;;;;;2.95;1.50;;;17.90;55.80;;;;;;4958207;28;20424;-69
2022/11/18 06:21:01;;;;;;;3.92;1.90;;;17.90;56.20;;;;;;4958977;28;20222;-69
2022/11/18 06:23:28;;;;;;;2.72;1.80;;;17.90;56.40;;;;;;4958758;28;20201;-69
2022/11/18 06:25:55;;;;;;;1.80;1.70;;;17.90;56.50;;;;;;4958280;28;20194;-69
2022/11/18 06:28:22;;;;;;;2.65;1.73;;;17.80;56.50;;;;;;4958206;28;20541;-69
2022/11/18 06:30:49;;;;;;;4.18;1.65;;;17.80;56.50;;;;;;4975212;28;20213;-69
2022/11/18 06:33:16;;;;;;;1.75;1.45;;;17.80;56.70;;;;;;4957995;28;20201;-69
2022/11/18 06:35:44;;;;;;;2.45;1.60;;;17.80;56.80;;;;;;4975166;28;20680;-69
2022/11/18 06:38:12;;;;;;;3.15;1.60;;;17.80;56.90;;;;;;4958470;28;20213;-69
2022/11/18 06:40:43;;;;;;;1.85;1.52;;;17.80;56.70;;;;;;4959314;28;20253;-69
2022/11/18 06:48:33;;;;;;;1.67;1.33;;;17.80;56.70;;;;;;4957113;28;20194;-69
2022/11/18 06:51:00;;;;;;;2.38;1.55;;;17.80;56.70;;;;;;4957850;28;20308;-69
2022/11/18 06:53:29;;;;;;;1.73;1.40;;;17.80;56.90;;;;;;4957890;28;20293;-69
2022/11/18 06:55:56;;;;;;;1.77;1.40;;;17.80;56.60;;;;;;4957474;28;20693;-70
2022/11/18 06:58:23;;;;;;;3.58;1.55;;;17.80;56.90;;;;;;4957713;28;20260;-70
2022/11/18 07:00:51;;;;;;;2.10;1.42;;;17.80;56.80;;;;;;4957606;28;20218;-70
2022/11/18 07:03:18;;;;;;;3.05;1.60;;;17.80;56.80;;;;;;4957521;28;20301;-70
2022/11/18 07:05:45;;;;;;;3.10;1.40;;;17.80;57.10;;;;;;4974862;28;20533;-70
2022/11/18 07:08:12;;;;;;;2.25;1.38;;;17.80;57.10;;;;;;4957400;28;20675;-70
2022/11/18 07:10:40;;;;;;;1.42;1.10;;;17.80;57.10;;;;;;4957360;28;20217;-70
2022/11/18 07:13:07;;;;;;;2.47;1.40;;;17.90;57.00;;;;;;4957404;28;20202;-70
2022/11/18 07:15:35;;;;;;;1.67;1.40;;;17.90;56.80;;;;;;4958024;28;20304;-70
2022/11/18 07:18:01;;;;;;;2.05;1.38;;;17.90;56.60;;;;;;4974544;28;20535;-70
2022/11/18 07:20:29;;;;;;;3.00;1.48;;;17.90;56.50;;;;;;4957581;28;20251;-70
2022/11/18 07:22:56;;;;;;;2.88;1.30;;;18.00;56.40;;;;;;4957526;28;20194;-69
2022/11/18 07:25:23;;;;;;;2.60;1.30;;;18.00;56.00;;;;;;4957657;28;20564;-69
2022/11/18 07:27:51;;;;;;;1.90;1.30;;;18.00;55.80;;;;;;4957309;28;20230;-69
2022/11/18 07:30:20;;;;;;;1.45;1.20;;;18.00;55.70;;;;;;4957316;28;20212;-69
2022/11/18 07:32:47;;;;;;;1.63;1.30;;;18.10;55.60;;;;;;4957249;28;20295;-69
2022/11/18 07:35:16;;;;;;;1.65;1.20;;;18.10;56.30;;;;;;4957160;28;20221;-69
2022/11/18 07:37:42;;;;;;;1.17;1.08;;;18.10;55.50;;;;;;4957132;28;20680;-69
2022/11/18 07:40:10;;;;;;;2.20;1.33;;;18.10;55.50;;;;;;4958199;28;20206;-69
2022/11/18 07:42:42;;;;;;;1.58;1.30;;;18.10;55.50;;;;;;4957482;28;20217;-69
2022/11/18 07:45:24;;;;;;;1.58;1.30;;;18.10;55.40;;;;;;4957227;28;20205;-69
2022/11/18 07:47:52;;;;;;;1.67;1.23;;;18.10;55.50;;;;;;4957129;28;20292;-69
2022/11/18 07:50:19;;;;;;;1.95;1.15;;;18.10;55.40;;;;;;4957149;28;20559;-69
2022/11/18 07:52:46;;;;;;;1.70;1.15;;;18.10;55.50;;;;;;4958241;28;20202;-69
2022/11/18 07:55:13;;;;;;;2.33;1.40;;;18.20;55.40;;;;;;4960342;28;20198;-69
2022/11/18 07:57:40;;;;;;;1.60;1.15;;;18.20;55.50;;;;;;4960803;28;20194;-69
2022/11/18 08:00:08;;;;;;;1.30;1.20;;;18.20;55.50;;;;;;4960434;28;20217;-69
2022/11/18 08:02:42;;;;;;;1.52;1.33;;;18.20;55.30;;;;;;4977840;28;20178;-69
2022/11/18 08:05:09;;;;;;;1.40;1.30;;;18.20;55.40;;;;;;4960501;28;20206;-70
2022/11/18 08:07:36;;;;;;;2.13;1.50;;;18.20;55.30;;;;;;4960320;28;20194;-70
2022/11/18 08:10:03;;;;;;;1.15;1.05;;;18.20;55.30;;;;;;4978292;28;20194;-69
2022/11/18 08:12:30;;;;;;;1.35;1.25;;;18.20;55.30;;;;;;4960388;28;20724;-69
2022/11/18 08:14:57;;;;;;;2.60;1.30;;;18.20;55.20;;;;;;4960612;28;20545;-69
2022/11/18 08:17:24;;;;;;;2.13;1.30;;;18.20;55.20;;;;;;4960885;28;20230;-69
2022/11/18 08:19:53;;;;;;;2.83;1.30;;;18.20;55.20;;;;;;4961550;28;20210;-69
2022/11/18 08:22:20;;;;;;;1.88;1.40;;;18.20;55.10;;;;;;4963515;28;20225;-69
2022/11/18 08:24:47;;;;;;;1.80;1.50;;;18.30;55.20;;;;;;4963169;28;20214;-69
2022/11/18 08:27:14;;;;;;;2.30;1.42;;;18.30;55.20;;;;;;4961446;28;20703;-69
2022/11/18 08:29:41;;;;;;;1.27;1.10;;;18.30;55.30;;;;;;4960702;28;20202;-69
2022/11/18 08:32:09;;;;;;;2.05;1.00;;;18.30;55.20;;;;;;4960369;28;20214;-69
2022/11/18 08:34:36;;;;;;;1.38;1.10;;;18.30;55.30;;;;;;4960436;28;20209;-69
2022/11/18 08:37:05;;;;;;;1.80;1.40;;;18.30;55.10;;;;;;4961961;28;20241;-69
2022/11/18 08:39:31;;;;;;;1.35;1.20;;;18.30;55.10;;;;;;4960084;28;20194;-69
2022/11/18 08:41:59;;;;;;;1.63;1.17;;;18.30;55.10;;;;;;4959762;28;20232;-69
2022/11/18 08:44:26;;;;;;;2.03;1.20;;;18.30;55.20;;;;;;4960063;28;20221;-69
2022/11/18 08:46:52;;;;;;;1.40;1.00;;;18.30;55.00;;;;;;4959592;28;20198;-69
2022/11/18 08:49:20;;;;;;;2.47;1.05;;;18.30;55.00;;;;;;4960372;28;20212;-69
2022/11/18 08:51:46;;;;;;;1.20;1.10;;;18.30;55.00;;;;;;4959433;28;20225;-69
2022/11/18 08:54:17;;;;;;;1.98;1.30;;;18.30;55.00;;;;;;4976709;28;20187;-69
2022/11/18 08:56:44;;;;;;;1.33;1.02;;;18.40;55.10;;;;;;4959385;28;20214;-69
2022/11/18 08:59:11;;;;;;;1.20;1.08;;;18.30;55.00;;;;;;4959420;28;20677;-69
2022/11/18 09:01:40;;;;;;;1.20;1.10;;;18.40;55.20;;;;;;4959559;28;20222;-69
2022/11/18 09:04:07;;;;;;;1.92;1.10;;;18.40;55.20;;;;;;4959357;28;20199;-69
2022/11/18 09:06:37;;;;;;;1.10;0.98;;;18.40;55.00;;;;;;4959802;28;20201;-69
2022/11/18 09:09:04;;;;;;;1.90;1.10;;;18.40;55.10;;;;;;4976456;28;20186;-69
2022/11/18 09:11:32;;;;;;;1.00;0.95;;;18.40;55.00;;;;;;4959236;28;20728;-69
2022/11/18 09:13:59;;;;;;;1.73;1.00;;;18.40;55.00;;;;;;4958930;28;20209;-69
2022/11/18 09:16:28;;;;;;;1.17;1.05;;;18.40;55.00;;;;;;4958883;28;20630;-69
2022/11/18 09:18:55;;;;;;;1.17;1.08;;;18.40;55.00;;;;;;4976243;28;20209;-69
2022/11/18 09:21:24;;;;;;;1.00;1.00;;;18.40;55.00;;;;;;4958824;28;20248;-69
2022/11/18 09:23:52;;;;;;;1.63;1.13;;;18.40;54.90;;;;;;4958894;28;20257;-69
2022/11/18 09:26:21;;;;;;;1.77;0.90;;;18.50;54.90;;;;;;4958847;28;20204;-69
2022/11/18 09:28:50;;;;;;;1.20;1.10;;;18.50;55.00;;;;;;4958776;28;20202;-69
2022/11/18 09:31:17;;;;;;;1.10;0.90;;;18.50;55.10;;;;;;4958717;28;20224;-69
2022/11/18 09:33:44;;;;;;;0.80;0.80;;;18.50;55.20;;;;;;4958676;28;20201;-69
2022/11/18 09:36:12;;;;;;;0.93;0.90;;;18.40;55.10;;;;;;4958750;28;20231;-69
2022/11/18 09:38:39;;;;;;;1.08;0.90;;;18.40;55.10;;;;;;4958586;28;20688;-69
2022/11/18 09:41:12;;;;;;;0.88;0.88;;;18.40;55.10;;;;;;4958519;28;20218;-69
2022/11/18 09:43:42;;;;;;;0.77;0.77;;;18.50;55.10;;;;;;4959030;28;20273;-69
2022/11/18 09:46:18;;;;;;;1.15;1.02;;;18.50;55.20;;;;;;4959629;28;20205;-69
2022/11/18 09:51:30;;;;;;;1.20;1.10;;;18.50;55.10;;;;;;4958411;28;20218;-69
2022/11/18 09:53:57;;;;;;;1.35;1.10;;;18.50;54.90;;;;;;4958488;28;20206;-69
2022/11/18 09:56:24;;;;;;;1.35;1.02;;;18.50;55.00;;;;;;4958474;28;20289;-69
2022/11/18 09:58:50;;;;;;;1.90;0.98;;;18.50;54.90;;;;;;4958490;28;20205;-69
2022/11/18 10:01:20;;;;;;;1.20;1.10;;;18.50;54.80;;;;;;4958469;28;20300;-69
2022/11/18 10:03:47;;;;;;;0.98;0.88;;;18.50;54.80;;;;;;4959982;28;20209;-69
2022/11/18 10:06:18;;;;;;;1.00;0.90;;;18.50;54.80;;;;;;4959517;28;20669;-69
2022/11/18 10:08:50;;;;;;;1.20;1.08;;;18.50;54.80;;;;;;4961691;28;20195;-69
2022/11/18 10:11:19;;;;;;;1.80;1.00;;;18.60;54.70;;;;;;4958434;28;20260;-69
2022/11/18 10:13:51;;;;;;;1.85;1.20;;;18.60;54.70;;;;;;4958263;28;20209;-69
2022/11/18 10:16:26;;;;;;;1.88;1.10;;;18.60;54.60;;;;;;4957899;28;20368;-69
2022/11/18 10:18:55;;;;;;;0.88;0.70;;;18.60;54.40;;;;;;4958215;28;20210;-69
2022/11/18 10:21:27;;;;;;;0.88;0.88;;;18.60;54.50;;;;;;4957919;28;20398;-69
2022/11/18 10:23:56;;;;;;;1.75;1.20;;;18.60;54.50;;;;;;4957860;28;20217;-69
2022/11/18 10:26:33;;;;;;;1.17;1.08;;;18.60;54.40;;;;;;4957813;28;20202;-69
2022/11/18 10:29:01;;;;;;;1.38;0.90;;;18.60;54.30;;;;;;4957972;28;20202;-69
2022/11/18 10:31:29;;;;;;;0.70;0.70;;;18.70;54.40;;;;;;4957694;28;20217;-69
2022/11/18 10:34:00;;;;;;;1.35;0.90;;;18.70;54.40;;;;;;4957617;28;20202;-69
2022/11/18 10:36:28;;;;;;;1.13;1.00;;;18.70;54.40;;;;;;4957401;28;20301;-69
2022/11/18 10:39:12;;;;;;;1.38;1.13;;;18.70;54.30;;;;;;4957638;28;20206;-69
2022/11/18 10:41:42;;;;;;;1.10;1.08;;;18.70;54.30;;;;;;4957652;28;20222;-69
2022/11/18 10:44:45;;;;;;;1.73;1.15;;;18.70;54.40;;;;;;4957592;28;20727;-69
2022/11/18 10:47:27;;;;;;;1.00;1.00;;;18.70;54.30;;;;;;4957567;28;20244;-69
2022/11/18 10:49:56;;;;;;;0.93;0.88;;;18.70;54.40;;;;;;4957547;28;20650;-69
2022/11/18 10:52:23;;;;;;;0.93;0.90;;;18.80;54.60;;;;;;4957601;28;20228;-69
2022/11/18 10:55:19;;;;;;;1.30;1.20;;;18.80;54.50;;;;;;4957822;28;20206;-69
2022/11/18 10:57:46;;;;;;;1.20;1.10;;;18.80;54.30;;;;;;4957474;28;20229;-69
2022/11/18 11:00:52;;;;;;;1.00;1.00;;;18.90;54.30;;;;;;4957393;28;20270;-69
2022/11/18 11:03:33;;;;;;;1.88;1.20;;;18.90;54.20;;;;;;4957467;28;20190;-69
2022/11/18 11:06:21;;;;;;;1.55;1.33;;;18.90;54.10;;;;;;4957540;28;20206;-69
2022/11/18 11:08:49;;;;;;;1.33;1.23;;;18.90;54.00;;;;;;4957473;28;20198;-69
2022/11/18 11:11:25;;;;;;;2.30;1.20;;;18.90;54.10;;;;;;4957437;28;20224;-69
2022/11/18 11:13:54;;;;;;;2.75;1.30;;;18.90;54.10;;;;;;4958578;28;20272;-69
2022/11/18 11:16:21;;;;;;;1.40;1.30;;;18.80;54.00;;;;;;4962379;28;20297;-69
2022/11/18 11:18:52;;;;;;;1.55;1.42;;;18.80;54.10;;;;;;4982871;28;20190;-69
2022/11/18 11:21:21;;;;;;;1.23;1.20;;;18.80;54.20;;;;;;4968799;28;20220;-69
2022/11/18 11:23:48;;;;;;;1.45;1.20;;;18.80;54.20;;;;;;4976045;28;20241;-69
2022/11/18 11:26:23;;;;;;;1.75;1.23;;;18.80;54.20;;;;;;4957767;28;20205;-69
2022/11/18 11:28:51;;;;;;;1.20;1.10;;;18.80;54.30;;;;;;4960269;28;20240;-69
2022/11/18 11:31:21;;;;;;;1.33;1.23;;;18.80;54.40;;;;;;4978220;28;20218;-69
2022/11/18 11:33:51;;;;;;;1.20;1.10;;;18.80;54.50;;;;;;4978200;28;20197;-69
2022/11/18 11:36:25;;;;;;;1.20;1.10;;;18.80;54.50;;;;;;4960788;28;20198;-69
2022/11/18 11:38:57;;;;;;;1.15;1.05;;;18.80;54.60;;;;;;4960736;28;20656;-69
2022/11/18 11:41:25;;;;;;;1.20;1.10;;;18.80;54.60;;;;;;4960708;28;20591;-69
2022/11/18 11:44:04;;;;;;;1.02;0.93;;;18.80;54.40;;;;;;4978453;28;20253;-69
2022/11/18 11:46:36;;;;;;;1.58;0.90;;;18.80;54.50;;;;;;4960797;28;20205;-69
2022/11/18 11:49:15;;;;;;;1.05;1.05;;;18.80;54.50;;;;;;4960699;28;20585;-69
2022/11/18 11:51:47;;;;;;;0.80;0.80;;;18.90;54.60;;;;;;4960522;28;20232;-69
2022/11/18 11:54:30;;;;;;;0.90;0.90;;;19.00;54.50;;;;;;4944832;28;20190;-69
2022/11/18 11:56:59;;;;;;;0.73;0.73;;;19.00;54.30;;;;;;4960407;28;20210;-69
2022/11/18 11:59:29;;;;;;;0.75;0.75;;;19.10;54.20;;;;;;4960483;28;20206;-69
2022/11/18 12:02:15;;;;;;;0.95;0.95;;;19.10;54.00;;;;;;4960551;28;20586;-69
2022/11/18 12:04:45;;;;;;;0.80;0.80;;;19.10;53.80;;;;;;4960500;28;20194;-69
2022/11/18 12:07:15;;;;;;;1.27;0.90;;;19.20;54.00;;;;;;4960610;28;20202;-69
2022/11/18 12:09:58;;;;;;;1.08;0.98;;;19.10;54.10;;;;;;4960630;28;20193;-69
2022/11/18 12:12:37;;;;;;;1.20;1.00;;;19.10;54.20;;;;;;4961067;28;20338;-69
2022/11/18 12:15:15;;;;;;;0.80;0.80;;;19.10;54.20;;;;;;4960252;28;20301;-69
2022/11/18 12:17:45;;;;;;;1.08;0.80;;;19.10;54.10;;;;;;4978843;28;20198;-69
2022/11/18 12:20:37;;;;;;;0.75;0.73;;;19.10;54.20;;;;;;4961248;28;20210;-69
2022/11/18 12:23:12;;;;;;;1.00;0.90;;;19.20;54.10;;;;;;4961078;28;20560;-69
2022/11/18 12:26:07;;;;;;;0.80;0.80;;;19.10;54.00;;;;;;4960026;28;20289;-69
2022/11/18 12:28:36;;;;;;;1.20;1.00;;;19.20;53.90;;;;;;4960389;28;20206;-69
2022/11/18 12:31:32;;;;;;;1.60;0.73;;;19.10;53.80;;;;;;4960352;28;20308;-69
2022/11/18 12:34:00;;;;;;;1.08;0.85;;;19.20;53.90;;;;;;4959945;28;20684;-69
2022/11/18 12:36:29;;;;;;;0.70;0.70;;;19.10;53.80;;;;;;4944030;28;20671;-69
2022/11/18 12:38:56;;;;;;;0.77;0.75;;;19.10;53.90;;;;;;4976712;28;20190;-69
2022/11/18 12:44:45;;;;;;;1.98;0.82;;;19.10;53.80;;;;;;4959492;28;20557;-69
2022/11/18 12:47:13;;;;;;;0.70;0.70;;;19.00;53.80;;;;;;4959534;28;20222;-69
2022/11/18 12:50:14;;;;;;;0.80;0.80;;;19.10;53.80;;;;;;4959552;28;20206;-69
2022/11/18 12:53:03;;;;;;;0.75;0.75;;;19.10;53.80;;;;;;4959493;28;20656;-69
2022/11/18 12:55:31;;;;;;;0.80;0.80;;;19.10;53.80;;;;;;4955667;28;20204;-69
2022/11/18 12:57:59;;;;;;;0.55;0.50;;;19.10;53.90;;;;;;4959278;28;20623;-69
2022/11/18 13:00:31;;;;;;;0.80;0.80;;;19.00;53.70;;;;;;4959305;28;20202;-69
2022/11/18 13:03:00;;;;;;;0.90;0.75;;;19.00;53.70;;;;;;4959200;28;20260;-69
2022/11/18 13:05:27;;;;;;;1.42;0.93;;;19.10;53.80;;;;;;4960054;28;20202;-69
2022/11/18 13:08:14;;;;;;;0.95;0.85;;;19.10;53.80;;;;;;4959212;28;20269;-69
2022/11/18 13:10:47;;;;;;;1.10;0.85;;;19.00;53.80;;;;;;4959111;28;20218;-69
2022/11/18 13:13:32;;;;;;;0.80;0.80;;;19.00;53.70;;;;;;4959076;28;20264;-69
2022/11/18 13:18:50;;;;;;;0.80;0.70;;;19.00;53.80;;;;;;4959507;28;20316;-69
2022/11/18 13:24:15;;;;;;;0.70;0.70;;;19.00;53.80;;;;;;4906170;28;20204;-69
2022/11/18 13:26:44;;;;;;;1.85;0.80;;;19.00;53.80;;;;;;4959030;28;20201;-69
2022/11/18 13:29:23;;;;;;;0.90;0.90;;;19.00;54.20;;;;;;4959031;28;20667;-70
2022/11/18 13:31:56;;;;;;;1.58;0.93;;;19.00;53.80;;;;;;4976030;28;20224;-69